createdAt,value
2017-02-20T00:00:57.377Z,6.22
2017-02-20T00:02:08.111Z,6.17
2017-02-20T00:03:18.418Z,6.16
2017-02-20T00:04:29.167Z,6.17
2017-02-20T00:05:39.891Z,6.17
2017-02-20T00:06:50.610Z,6.38
2017-02-20T00:08:01.323Z,6.35
2017-02-20T00:09:12.069Z,6.36
2017-02-20T00:10:22.788Z,6.25
2017-02-20T00:11:33.104Z,6.34
2017-02-20T00:12:43.803Z,6.35
2017-02-20T00:13:54.500Z,6.35
2017-02-20T00:15:05.220Z,6.38
2017-02-20T00:16:15.917Z,6.38
2017-02-20T00:17:26.623Z,6.41
2017-02-20T00:18:37.360Z,6.46
2017-02-20T00:19:48.067Z,6.35
2017-02-20T00:20:58.784Z,6.38
2017-02-20T00:22:09.087Z,6.34
2017-02-20T00:23:19.778Z,6.34
2017-02-20T00:24:30.493Z,6.34
2017-02-20T00:25:41.196Z,6.32
2017-02-20T00:26:51.901Z,6.38
2017-02-20T00:28:02.621Z,6.43
2017-02-20T00:29:13.324Z,6.2
2017-02-20T00:30:23.628Z,6.19
2017-02-20T00:31:34.345Z,6.22
2017-02-20T00:32:45.062Z,6.15
2017-02-20T00:33:55.779Z,6.2
2017-02-20T00:35:06.506Z,6.13
2017-02-20T00:36:16.848Z,6.25
2017-02-20T00:37:27.556Z,6.16
2017-02-20T00:38:38.277Z,6.16
2017-02-20T00:39:48.989Z,6.25
2017-02-20T00:40:59.707Z,6.12
2017-02-20T00:42:10.427Z,6.12
2017-02-20T00:43:21.125Z,6.09
2017-02-20T00:44:31.852Z,6.09
2017-02-20T00:45:42.564Z,6.12
2017-02-20T00:46:53.289Z,6.13
2017-02-20T00:48:04.001Z,6.16
2017-02-20T00:49:14.312Z,6.15
2017-02-20T00:50:24.641Z,6.13
2017-02-20T00:51:35.360Z,6.15
2017-02-20T00:52:46.079Z,6.05
2017-02-20T00:53:56.398Z,6.05
2017-02-20T00:55:07.107Z,6.01
2017-02-20T00:56:17.409Z,5.97
2017-02-20T00:57:27.726Z,5.98
2017-02-20T00:58:38.421Z,5.95
2017-02-20T00:59:49.128Z,5.87
2017-02-20T01:00:59.844Z,5.84
2017-02-20T01:02:10.167Z,5.8
2017-02-20T01:03:20.881Z,5.76
2017-02-20T01:04:31.569Z,5.77
2017-02-20T01:05:42.292Z,5.79
2017-02-20T01:06:53.001Z,5.8
2017-02-20T01:08:03.738Z,5.76
2017-02-20T01:09:14.450Z,5.81
2017-02-20T01:10:24.391Z,5.74
2017-02-20T01:11:35.096Z,5.8
2017-02-20T01:12:45.807Z,5.83
2017-02-20T01:13:56.509Z,5.81
2017-02-20T01:15:07.222Z,5.81
2017-02-20T01:16:17.928Z,5.83
2017-02-20T01:17:28.644Z,5.77
2017-02-20T01:18:38.554Z,5.81
2017-02-20T01:19:49.271Z,5.83
2017-02-20T01:20:59.980Z,5.79
2017-02-20T01:22:10.314Z,5.76
2017-02-20T01:23:20.657Z,5.77
2017-02-20T01:24:30.977Z,5.81
2017-02-20T01:25:41.284Z,5.81
2017-02-20T01:26:51.994Z,5.79
2017-02-20T01:28:02.743Z,5.84
2017-02-20T01:29:13.454Z,5.84
2017-02-20T01:30:23.768Z,5.84
2017-02-20T01:31:34.460Z,5.88
2017-02-20T01:32:45.173Z,5.87
2017-02-20T01:33:55.496Z,5.88
2017-02-20T01:35:06.234Z,5.95
2017-02-20T01:36:16.928Z,5.84
2017-02-20T01:37:27.639Z,5.83
2017-02-20T01:38:38.352Z,5.8
2017-02-20T01:39:48.654Z,5.81
2017-02-20T01:40:59.365Z,5.8
2017-02-20T01:42:09.673Z,5.84
2017-02-20T01:43:19.575Z,5.9
2017-02-20T01:44:30.284Z,5.84
2017-02-20T01:45:40.999Z,5.91
2017-02-20T01:46:51.695Z,5.77
2017-02-20T01:48:02.399Z,5.92
2017-02-20T01:49:13.092Z,5.87
2017-02-20T01:50:23.389Z,5.94
2017-02-20T01:51:34.106Z,5.9
2017-02-20T01:52:44.441Z,5.87
2017-02-20T01:53:55.245Z,5.9
2017-02-20T01:55:05.979Z,5.9
2017-02-20T01:56:16.297Z,5.94
2017-02-20T01:57:26.999Z,5.97
2017-02-20T01:58:37.689Z,5.97
2017-02-20T01:59:48.395Z,5.9
2017-02-20T02:00:59.113Z,5.9
2017-02-20T02:02:09.408Z,5.94
2017-02-20T02:03:19.313Z,5.92
2017-02-20T02:04:29.621Z,5.88
2017-02-20T02:05:40.324Z,6.01
2017-02-20T02:06:51.016Z,5.77
2017-02-20T02:08:01.735Z,5.95
2017-02-20T02:09:12.460Z,5.94
2017-02-20T02:10:23.160Z,5.95
2017-02-20T02:11:33.861Z,5.99
2017-02-20T02:12:44.576Z,5.99
2017-02-20T02:13:55.275Z,6.22
2017-02-20T02:15:05.600Z,6.07
2017-02-20T02:16:15.906Z,6.09
2017-02-20T02:17:26.631Z,6.07
2017-02-20T02:18:37.330Z,6.06
2017-02-20T02:19:48.044Z,6.01
2017-02-20T02:20:58.748Z,5.94
2017-02-20T02:22:09.058Z,5.9
2017-02-20T02:23:19.357Z,5.81
2017-02-20T02:24:30.081Z,5.72
2017-02-20T02:25:40.789Z,5.74
2017-02-20T02:26:51.502Z,5.73
2017-02-20T02:28:01.826Z,5.67
2017-02-20T02:29:12.422Z,5.67
2017-02-20T02:30:22.339Z,5.72
2017-02-20T02:31:33.065Z,5.64
2017-02-20T02:32:43.771Z,5.62
2017-02-20T02:33:54.507Z,5.67
2017-02-20T02:35:05.221Z,5.59
2017-02-20T02:36:15.541Z,5.74
2017-02-20T02:37:25.848Z,5.73
2017-02-20T02:38:36.569Z,5.79
2017-02-20T02:39:47.268Z,5.62
2017-02-20T02:40:57.974Z,5.72
2017-02-20T02:42:08.298Z,5.8
2017-02-20T02:43:18.616Z,5.81
2017-02-20T02:44:29.343Z,5.91
2017-02-20T02:45:40.061Z,5.83
2017-02-20T02:46:50.750Z,5.8
2017-02-20T02:48:01.445Z,5.87
2017-02-20T02:49:12.161Z,5.83
2017-02-20T02:50:22.874Z,5.83
2017-02-20T02:51:33.582Z,5.7
2017-02-20T02:52:44.275Z,5.77
2017-02-20T02:53:54.976Z,5.76
2017-02-20T02:55:05.696Z,5.77
2017-02-20T02:56:16.416Z,5.74
2017-02-20T02:57:27.111Z,5.79
2017-02-20T02:58:37.804Z,5.81
2017-02-20T02:59:48.526Z,5.73
2017-02-20T03:00:58.857Z,5.73
2017-02-20T03:02:09.556Z,5.79
2017-02-20T03:03:19.883Z,5.84
2017-02-20T03:04:30.195Z,5.72
2017-02-20T03:05:40.904Z,5.77
2017-02-20T03:06:51.615Z,5.72
2017-02-20T03:08:02.360Z,5.73
2017-02-20T03:09:12.256Z,5.72
2017-02-20T03:10:22.956Z,5.73
2017-02-20T03:11:33.660Z,5.81
2017-02-20T03:12:44.376Z,5.77
2017-02-20T03:13:55.076Z,5.8
2017-02-20T03:15:05.422Z,5.79
2017-02-20T03:16:16.125Z,5.72
2017-02-20T03:17:26.862Z,5.65
2017-02-20T03:18:37.588Z,5.73
2017-02-20T03:19:48.312Z,5.8
2017-02-20T03:20:58.617Z,5.8
2017-02-20T03:22:08.934Z,5.81
2017-02-20T03:23:19.275Z,5.73
2017-02-20T03:24:30.028Z,5.65
2017-02-20T03:25:40.739Z,5.69
2017-02-20T03:26:51.493Z,5.67
2017-02-20T03:28:02.542Z,5.69
2017-02-20T03:29:12.858Z,5.74
2017-02-20T03:30:23.551Z,5.79
2017-02-20T03:31:34.256Z,5.73
2017-02-20T03:32:44.973Z,5.76
2017-02-20T03:33:55.672Z,5.64
2017-02-20T03:35:06.397Z,5.76
2017-02-20T03:36:16.313Z,5.65
2017-02-20T03:37:27.038Z,5.62
2017-02-20T03:38:37.753Z,5.58
2017-02-20T03:39:52.065Z,5.65
2017-02-20T03:41:02.795Z,5.55
2017-02-20T03:42:13.102Z,5.54
2017-02-20T03:43:23.804Z,5.64
2017-02-20T03:44:34.507Z,5.59
2017-02-20T03:45:45.235Z,5.47
2017-02-20T03:46:55.538Z,5.46
2017-02-20T03:48:05.867Z,5.46
2017-02-20T03:49:16.575Z,5.41
2017-02-20T03:50:27.287Z,5.37
2017-02-20T03:51:38.020Z,5.43
2017-02-20T03:52:48.737Z,5.37
2017-02-20T03:53:59.438Z,5.51
2017-02-20T03:55:10.153Z,5.47
2017-02-20T03:56:20.492Z,5.49
2017-02-20T03:57:30.407Z,5.49
2017-02-20T03:58:41.108Z,5.47
2017-02-20T03:59:51.815Z,5.47
2017-02-20T04:01:02.533Z,5.49
2017-02-20T04:02:13.250Z,5.47
2017-02-20T04:03:23.956Z,5.51
2017-02-20T04:04:34.668Z,5.44
2017-02-20T04:05:45.013Z,5.31
2017-02-20T04:06:55.717Z,5.36
2017-02-20T04:08:06.439Z,5.23
2017-02-20T04:09:17.153Z,5.29
2017-02-20T04:10:27.878Z,5.25
2017-02-20T04:11:38.582Z,5.2
2017-02-20T04:12:48.894Z,5.2
2017-02-20T04:13:59.605Z,5.2
2017-02-20T04:15:09.910Z,5.26
2017-02-20T04:16:20.232Z,5.33
2017-02-20T04:17:30.563Z,5.26
2017-02-20T04:18:41.264Z,5.23
2017-02-20T04:19:51.957Z,5.26
2017-02-20T04:21:01.872Z,5.23
2017-02-20T04:22:12.180Z,5.29
2017-02-20T04:23:22.483Z,5.26
2017-02-20T04:24:32.796Z,5.25
2017-02-20T04:25:43.501Z,5.16
2017-02-20T04:26:54.215Z,5.18
2017-02-20T04:28:04.915Z,5.07
2017-02-20T04:29:14.830Z,5.07
2017-02-20T04:30:25.162Z,5.02
2017-02-20T04:31:35.870Z,5.01
2017-02-20T04:32:46.578Z,4.98
2017-02-20T04:33:57.296Z,5.01
2017-02-20T04:35:07.990Z,5.02
2017-02-20T04:36:18.682Z,5.16
2017-02-20T04:37:29.427Z,5.05
2017-02-20T04:38:40.125Z,5
2017-02-20T04:39:50.834Z,5.05
2017-02-20T04:41:01.553Z,5
2017-02-20T04:42:12.270Z,5.01
2017-02-20T04:43:22.977Z,5.04
2017-02-20T04:44:33.726Z,5.04
2017-02-20T04:45:44.419Z,5.02
2017-02-20T04:46:55.130Z,5.01
2017-02-20T04:48:05.846Z,5.02
2017-02-20T04:49:16.168Z,4.94
2017-02-20T04:50:26.874Z,4.95
2017-02-20T04:51:37.590Z,4.79
2017-02-20T04:52:48.300Z,4.86
2017-02-20T04:53:59.004Z,4.83
2017-02-20T04:55:09.327Z,4.82
2017-02-20T04:56:20.042Z,4.76
2017-02-20T04:57:30.744Z,4.76
2017-02-20T04:58:41.453Z,4.78
2017-02-20T04:59:52.146Z,4.78
2017-02-20T05:01:02.860Z,4.84
2017-02-20T05:02:13.585Z,4.82
2017-02-20T05:03:24.298Z,4.76
2017-02-20T05:04:35.009Z,4.82
2017-02-20T05:05:45.316Z,4.76
2017-02-20T05:06:56.030Z,4.78
2017-02-20T05:08:06.725Z,4.79
2017-02-20T05:09:17.486Z,4.76
2017-02-20T05:10:28.222Z,4.76
2017-02-20T05:11:38.547Z,4.75
2017-02-20T05:12:49.254Z,4.78
2017-02-20T05:13:59.962Z,4.74
2017-02-20T05:15:10.667Z,4.78
2017-02-20T05:16:21.370Z,4.71
2017-02-20T05:17:32.077Z,4.82
2017-02-20T05:18:42.783Z,4.79
2017-02-20T05:19:53.490Z,4.84
2017-02-20T05:21:04.208Z,4.82
2017-02-20T05:22:14.912Z,4.76
2017-02-20T05:23:25.608Z,4.78
2017-02-20T05:24:36.319Z,4.84
2017-02-20T05:25:46.630Z,4.74
2017-02-20T05:26:57.374Z,4.71
2017-02-20T05:28:08.081Z,4.75
2017-02-20T05:29:18.383Z,4.76
2017-02-20T05:30:29.105Z,4.75
2017-02-20T05:31:39.409Z,4.76
2017-02-20T05:32:50.129Z,4.75
2017-02-20T05:34:00.831Z,4.74
2017-02-20T05:35:11.553Z,4.76
2017-02-20T05:36:21.854Z,4.74
2017-02-20T05:37:32.571Z,4.75
2017-02-20T05:38:43.272Z,4.79
2017-02-20T05:39:53.969Z,4.86
2017-02-20T05:41:04.686Z,4.86
2017-02-20T05:42:15.008Z,4.86
2017-02-20T05:43:25.726Z,4.86
2017-02-20T05:44:36.463Z,4.79
2017-02-20T05:45:47.172Z,4.76
2017-02-20T05:46:57.926Z,4.78
2017-02-20T05:48:08.638Z,4.76
2017-02-20T05:49:18.972Z,4.67
2017-02-20T05:50:29.668Z,4.63
2017-02-20T05:51:39.980Z,4.66
2017-02-20T05:52:50.675Z,4.5
2017-02-20T05:54:01.423Z,4.49
2017-02-20T05:55:12.156Z,4.52
2017-02-20T05:56:22.483Z,4.52
2017-02-20T05:57:33.182Z,4.49
2017-02-20T05:58:43.883Z,4.6
2017-02-20T05:59:54.599Z,4.6
2017-02-20T06:01:05.302Z,4.58
2017-02-20T06:02:15.209Z,4.67
2017-02-20T06:03:25.917Z,4.68
2017-02-20T06:04:36.619Z,4.64
2017-02-20T06:05:47.372Z,4.64
2017-02-20T06:06:58.134Z,4.68
2017-02-20T06:08:08.452Z,4.58
2017-02-20T06:09:18.777Z,4.6
2017-02-20T06:10:29.473Z,4.53
2017-02-20T06:11:40.173Z,4.63
2017-02-20T06:12:50.913Z,4.5
2017-02-20T06:14:01.635Z,4.5
2017-02-20T06:15:12.329Z,4.45
2017-02-20T06:16:22.661Z,4.56
2017-02-20T06:17:33.358Z,4.46
2017-02-20T06:18:44.076Z,4.36
2017-02-20T06:19:54.774Z,4.28
2017-02-20T06:21:05.474Z,4.22
2017-02-20T06:22:15.789Z,4.28
2017-02-20T06:23:26.499Z,4.13
2017-02-20T06:24:37.195Z,4.07
2017-02-20T06:25:47.493Z,4.12
2017-02-20T06:26:58.212Z,4
2017-02-20T06:28:08.911Z,3.91
2017-02-20T06:29:19.622Z,3.95
2017-02-20T06:30:30.341Z,3.94
2017-02-20T06:31:41.048Z,3.84
2017-02-20T06:32:51.767Z,3.95
2017-02-20T06:34:02.482Z,3.86
2017-02-20T06:35:12.787Z,3.89
2017-02-20T06:36:23.507Z,3.96
2017-02-20T06:37:34.211Z,3.94
2017-02-20T06:38:44.939Z,3.91
2017-02-20T06:39:55.647Z,3.89
2017-02-20T06:41:06.354Z,3.77
2017-02-20T06:42:16.652Z,3.77
2017-02-20T06:43:27.356Z,3.77
2017-02-20T06:44:38.058Z,3.81
2017-02-20T06:45:48.772Z,3.77
2017-02-20T06:46:59.488Z,3.78
2017-02-20T06:48:09.807Z,3.81
2017-02-20T06:49:20.159Z,3.82
2017-02-20T06:50:30.889Z,3.82
2017-02-20T06:51:41.591Z,3.88
2017-02-20T06:52:52.331Z,3.89
2017-02-20T06:54:03.053Z,3.94
2017-02-20T06:55:13.762Z,3.94
2017-02-20T06:56:24.476Z,3.94
2017-02-20T06:57:35.195Z,3.94
2017-02-20T06:58:45.907Z,3.95
2017-02-20T06:59:56.626Z,3.86
2017-02-20T07:01:06.959Z,3.91
2017-02-20T07:02:17.286Z,3.92
2017-02-20T07:03:27.207Z,3.82
2017-02-20T07:04:37.937Z,3.76
2017-02-20T07:05:48.654Z,3.7
2017-02-20T07:06:59.354Z,3.68
2017-02-20T07:08:09.681Z,3.66
2017-02-20T07:09:19.986Z,3.58
2017-02-20T07:10:30.690Z,3.45
2017-02-20T07:11:41.416Z,3.48
2017-02-20T07:12:52.133Z,3.4
2017-02-20T07:14:02.868Z,3.43
2017-02-20T07:15:13.186Z,3.3
2017-02-20T07:16:23.901Z,3.3
2017-02-20T07:17:34.603Z,3.36
2017-02-20T07:18:45.315Z,3.31
2017-02-20T07:19:56.035Z,3.4
2017-02-20T07:21:06.739Z,3.46
2017-02-20T07:22:17.448Z,3.46
2017-02-20T07:23:28.158Z,3.45
2017-02-20T07:24:38.857Z,3.5
2017-02-20T07:25:49.568Z,3.46
2017-02-20T07:27:00.288Z,3.45
2017-02-20T07:28:11.043Z,3.55
2017-02-20T07:29:21.356Z,3.53
2017-02-20T07:30:32.070Z,3.55
2017-02-20T07:31:42.379Z,3.48
2017-02-20T07:32:53.093Z,3.46
2017-02-20T07:34:03.823Z,3.53
2017-02-20T07:35:14.157Z,3.55
2017-02-20T07:36:24.876Z,3.58
2017-02-20T07:37:35.575Z,3.61
2017-02-20T07:38:46.280Z,3.56
2017-02-20T07:39:56.986Z,3.63
2017-02-20T07:41:07.702Z,3.67
2017-02-20T07:42:17.644Z,3.59
2017-02-20T07:43:28.354Z,3.66
2017-02-20T07:44:38.665Z,3.66
2017-02-20T07:45:49.383Z,3.64
2017-02-20T07:47:00.130Z,3.61
2017-02-20T07:48:10.035Z,3.55
2017-02-20T07:49:20.356Z,3.56
2017-02-20T07:50:31.067Z,3.53
2017-02-20T07:51:40.982Z,3.56
2017-02-20T07:52:51.688Z,3.53
2017-02-20T07:54:02.388Z,3.56
2017-02-20T07:55:13.103Z,3.59
2017-02-20T07:56:23.421Z,3.56
2017-02-20T07:57:34.137Z,3.68
2017-02-20T07:58:44.857Z,3.77
2017-02-20T07:59:55.567Z,3.74
2017-02-20T08:01:06.289Z,3.82
2017-02-20T08:02:17.016Z,3.82
2017-02-20T08:03:27.735Z,3.84
2017-02-20T08:04:38.446Z,3.81
2017-02-20T08:05:49.155Z,3.78
2017-02-20T08:06:59.890Z,3.84
2017-02-20T08:08:10.221Z,3.74
2017-02-20T08:09:20.919Z,3.91
2017-02-20T08:10:31.635Z,3.95
2017-02-20T08:11:42.367Z,3.94
2017-02-20T08:12:53.078Z,3.88
2017-02-20T08:14:03.394Z,3.88
2017-02-20T08:15:13.699Z,3.88
2017-02-20T08:16:24.023Z,3.94
2017-02-20T08:17:34.328Z,3.88
2017-02-20T08:18:45.042Z,3.91
2017-02-20T08:19:55.743Z,3.92
2017-02-20T08:21:06.450Z,3.94
2017-02-20T08:22:16.774Z,3.95
2017-02-20T08:23:27.096Z,3.94
2017-02-20T08:24:37.801Z,3.94
2017-02-20T08:25:48.105Z,3.94
2017-02-20T08:26:58.406Z,3.91
2017-02-20T08:28:08.722Z,3.94
2017-02-20T08:29:19.420Z,3.89
2017-02-20T08:30:30.138Z,3.94
2017-02-20T08:31:40.880Z,3.91
2017-02-20T08:32:51.602Z,3.96
2017-02-20T08:34:02.346Z,3.91
2017-02-20T08:35:12.647Z,3.94
2017-02-20T08:36:23.356Z,3.91
2017-02-20T08:37:34.075Z,3.94
2017-02-20T08:38:44.395Z,3.91
2017-02-20T08:39:54.709Z,3.94
2017-02-20T08:41:05.427Z,3.95
2017-02-20T08:42:15.738Z,3.92
2017-02-20T08:43:26.436Z,3.99
2017-02-20T08:44:37.158Z,3.92
2017-02-20T08:45:47.851Z,3.99
2017-02-20T08:46:58.574Z,3.85
2017-02-20T08:48:09.282Z,3.86
2017-02-20T08:49:19.994Z,3.95
2017-02-20T08:50:30.705Z,3.99
2017-02-20T08:51:41.406Z,4.07
2017-02-20T08:52:52.114Z,4.07
2017-02-20T08:54:02.828Z,4.13
2017-02-20T08:55:12.760Z,4.24
2017-02-20T08:56:23.471Z,4.43
2017-02-20T08:57:33.778Z,4.49
2017-02-20T08:58:44.501Z,4.67
2017-02-20T08:59:55.210Z,4.75
2017-02-20T09:01:05.948Z,4.79
2017-02-20T09:02:16.263Z,4.9
2017-02-20T09:03:26.977Z,4.9
2017-02-20T09:04:37.723Z,4.94
2017-02-20T09:05:48.438Z,4.79
2017-02-20T09:06:59.150Z,4.6
2017-02-20T09:08:09.872Z,4.52
2017-02-20T09:09:20.596Z,4.46
2017-02-20T09:10:30.894Z,4.56
2017-02-20T09:11:41.625Z,4.43
2017-02-20T09:12:52.329Z,4.4
2017-02-20T09:14:03.034Z,4.43
2017-02-20T09:15:12.947Z,4.4
2017-02-20T09:16:23.661Z,4.28
2017-02-20T09:17:34.364Z,4.12
2017-02-20T09:18:45.096Z,3.89
2017-02-20T09:19:55.415Z,3.78
2017-02-20T09:21:06.152Z,3.91
2017-02-20T09:22:16.865Z,3.94
2017-02-20T09:23:27.598Z,3.94
2017-02-20T09:24:38.321Z,3.76
2017-02-20T09:25:47.843Z,3.7
2017-02-20T09:26:57.759Z,3.78
2017-02-20T09:28:08.457Z,3.76
2017-02-20T09:29:18.775Z,3.76
2017-02-20T09:30:29.483Z,3.76
2017-02-20T09:31:40.179Z,3.73
2017-02-20T09:32:50.887Z,3.73
2017-02-20T09:34:01.614Z,3.76
2017-02-20T09:35:11.923Z,3.78
2017-02-20T09:36:22.236Z,3.76
2017-02-20T09:37:32.963Z,3.81
2017-02-20T09:38:43.283Z,3.78
2017-02-20T09:39:53.983Z,3.77
2017-02-20T09:41:04.320Z,3.81
2017-02-20T09:42:14.622Z,3.78
2017-02-20T09:43:25.342Z,3.82
2017-02-20T09:44:36.050Z,3.74
2017-02-20T09:45:46.767Z,3.56
2017-02-20T09:46:57.077Z,3.37
2017-02-20T09:48:07.397Z,3.31
2017-02-20T09:49:16.923Z,3.21
2017-02-20T09:50:27.642Z,3.27
2017-02-20T09:51:38.346Z,3.21
2017-02-20T09:52:49.049Z,3.3
2017-02-20T09:53:59.361Z,3.29
2017-02-20T09:55:10.068Z,3.27
2017-02-20T09:56:20.410Z,3.33
2017-02-20T09:57:31.140Z,3.46
2017-02-20T09:58:41.849Z,3.46
2017-02-20T09:59:52.558Z,3.53
2017-02-20T10:01:03.270Z,3.59
2017-02-20T10:02:13.582Z,3.7
2017-02-20T10:03:24.307Z,3.78
2017-02-20T10:04:35.032Z,3.84
2017-02-20T10:05:45.329Z,3.71
2017-02-20T10:06:56.032Z,3.61
2017-02-20T10:08:06.745Z,3.66
2017-02-20T10:09:17.449Z,3.63
2017-02-20T10:10:27.776Z,3.55
2017-02-20T10:11:37.695Z,3.5
2017-02-20T10:12:48.404Z,3.36
2017-02-20T10:13:58.331Z,3.43
2017-02-20T10:15:09.064Z,3.46
2017-02-20T10:16:19.369Z,3.55
2017-02-20T10:17:29.676Z,3.56
2017-02-20T10:18:40.391Z,3.56
2017-02-20T10:19:51.107Z,3.43
2017-02-20T10:21:01.016Z,3.36
2017-02-20T10:22:11.319Z,3.22
2017-02-20T10:23:22.028Z,3.29
2017-02-20T10:24:32.347Z,3.4
2017-02-20T10:25:42.659Z,3.43
2017-02-20T10:26:52.958Z,3.49
2017-02-20T10:28:03.274Z,3.61
2017-02-20T10:29:13.990Z,3.66
2017-02-20T10:30:24.318Z,3.81
2017-02-20T10:31:35.406Z,3.77
2017-02-20T10:32:45.730Z,3.91
2017-02-20T10:33:56.429Z,3.91
2017-02-20T10:35:07.149Z,3.94
2017-02-20T10:36:17.461Z,4.1
2017-02-20T10:37:28.189Z,4.22
2017-02-20T10:38:38.496Z,4.28
2017-02-20T10:39:49.199Z,4.32
2017-02-20T10:40:59.913Z,4.4
2017-02-20T10:42:10.222Z,4.58
2017-02-20T10:43:20.933Z,4.43
2017-02-20T10:44:31.244Z,4.56
2017-02-20T10:45:41.972Z,4.49
2017-02-20T10:46:52.272Z,4.63
2017-02-20T10:48:02.984Z,4.6
2017-02-20T10:49:13.327Z,4.63
2017-02-20T10:50:23.641Z,4.75
2017-02-20T10:51:34.358Z,4.67
2017-02-20T10:52:45.060Z,4.76
2017-02-20T10:53:55.775Z,4.76
2017-02-20T10:55:06.505Z,4.6
2017-02-20T10:56:16.415Z,4.57
2017-02-20T10:57:27.123Z,4.57
2017-02-20T10:58:37.832Z,4.48
2017-02-20T10:59:48.565Z,4.4
2017-02-20T11:00:58.470Z,4.43
2017-02-20T11:02:09.200Z,4.46
2017-02-20T11:03:19.936Z,4.42
2017-02-20T11:04:30.652Z,4.34
2017-02-20T11:05:40.969Z,4.07
2017-02-20T11:06:51.697Z,4.07
2017-02-20T11:08:02.396Z,4.07
2017-02-20T11:09:13.121Z,4.06
2017-02-20T11:10:23.429Z,3.86
2017-02-20T11:11:34.155Z,3.74
2017-02-20T11:12:44.472Z,3.58
2017-02-20T11:13:54.777Z,3.58
2017-02-20T11:15:05.485Z,3.49
2017-02-20T11:16:15.450Z,3.56
2017-02-20T11:17:26.163Z,3.55
2017-02-20T11:18:36.900Z,3.56
2017-02-20T11:19:47.231Z,3.53
2017-02-20T11:20:57.941Z,3.55
2017-02-20T11:22:08.646Z,3.59
2017-02-20T11:23:19.045Z,3.48
2017-02-20T11:24:29.755Z,3.59
2017-02-20T11:25:40.465Z,3.58
2017-02-20T11:26:50.786Z,3.59
2017-02-20T11:28:01.498Z,3.58
2017-02-20T11:29:11.810Z,3.52
2017-02-20T11:30:22.123Z,3.46
2017-02-20T11:31:32.826Z,3.46
2017-02-20T11:32:43.536Z,3.46
2017-02-20T11:33:53.841Z,3.53
2017-02-20T11:35:04.150Z,3.63
2017-02-20T11:36:14.901Z,3.55
2017-02-20T11:37:25.603Z,3.63
2017-02-20T11:38:36.323Z,3.61
2017-02-20T11:39:47.022Z,3.56
2017-02-20T11:40:57.726Z,3.45
2017-02-20T11:42:08.423Z,3.46
2017-02-20T11:43:19.137Z,3.46
2017-02-20T11:44:29.838Z,3.49
2017-02-20T11:45:40.541Z,3.52
2017-02-20T11:46:51.262Z,3.63
2017-02-20T11:48:01.571Z,3.53
2017-02-20T11:49:12.318Z,3.67
2017-02-20T11:50:23.029Z,3.56
2017-02-20T11:51:33.739Z,3.66
2017-02-20T11:52:44.459Z,3.66
2017-02-20T11:53:55.159Z,3.74
2017-02-20T11:55:05.476Z,3.76
2017-02-20T11:56:15.397Z,3.77
2017-02-20T11:57:25.702Z,3.78
2017-02-20T11:58:36.427Z,3.86
2017-02-20T11:59:47.136Z,3.77
2017-02-20T12:00:57.486Z,3.81
2017-02-20T12:02:07.821Z,3.74
2017-02-20T12:03:17.737Z,3.63
2017-02-20T12:04:28.437Z,3.66
2017-02-20T12:05:39.137Z,3.68
2017-02-20T12:06:49.864Z,3.55
2017-02-20T12:08:00.572Z,3.56
2017-02-20T12:09:10.876Z,3.66
2017-02-20T12:10:21.207Z,3.67
2017-02-20T12:11:31.914Z,3.81
2017-02-20T12:12:42.248Z,3.71
2017-02-20T12:13:52.946Z,3.64
2017-02-20T12:15:03.690Z,3.53
2017-02-20T12:16:14.001Z,3.52
2017-02-20T12:17:24.709Z,3.48
2017-02-20T12:18:35.043Z,3.43
2017-02-20T12:19:45.368Z,3.33
2017-02-20T12:20:56.085Z,3.26
2017-02-20T12:22:06.836Z,3.19
2017-02-20T12:23:19.142Z,3.27
2017-02-20T12:24:29.867Z,3.27
2017-02-20T12:25:40.607Z,3.29
2017-02-20T12:26:50.922Z,3.18
2017-02-20T12:28:01.671Z,3.29
2017-02-20T12:29:11.986Z,3.12
2017-02-20T12:30:22.696Z,3.19
2017-02-20T12:31:33.404Z,3.15
2017-02-20T12:32:43.743Z,3.19
2017-02-20T12:33:54.444Z,3.22
2017-02-20T12:35:07.077Z,3.29
2017-02-20T12:36:17.004Z,3.33
2017-02-20T12:37:27.303Z,3.37
2017-02-20T12:38:38.020Z,3.45
2017-02-20T12:39:48.325Z,3.5
2017-02-20T12:40:59.031Z,3.67
2017-02-20T12:42:09.340Z,3.71
2017-02-20T12:43:20.047Z,3.76
2017-02-20T12:44:30.756Z,3.77
2017-02-20T12:45:41.480Z,3.89
2017-02-20T12:46:51.790Z,3.99
2017-02-20T12:48:02.504Z,3.96
2017-02-20T12:49:13.229Z,3.94
2017-02-20T12:50:23.932Z,3.84
2017-02-20T12:51:34.648Z,3.84
2017-02-20T12:52:45.365Z,3.77
2017-02-20T12:53:56.089Z,3.76
2017-02-20T12:55:06.789Z,3.81
2017-02-20T12:56:17.499Z,3.78
2017-02-20T12:57:28.220Z,3.78
2017-02-20T12:58:38.929Z,3.82
2017-02-20T12:59:49.249Z,3.82
2017-02-20T13:00:59.172Z,3.67
2017-02-20T13:02:09.888Z,3.53
2017-02-20T13:03:20.196Z,3.63
2017-02-20T13:04:30.920Z,3.67
2017-02-20T13:05:41.621Z,3.56
2017-02-20T13:06:51.945Z,3.61
2017-02-20T13:08:02.661Z,3.56
2017-02-20T13:09:12.976Z,3.71
2017-02-20T13:10:23.317Z,3.58
2017-02-20T13:11:34.030Z,3.56
2017-02-20T13:12:43.961Z,3.43
2017-02-20T13:13:54.675Z,3.37
2017-02-20T13:15:04.999Z,3.34
2017-02-20T13:16:14.920Z,3.31
2017-02-20T13:17:25.677Z,3.43
2017-02-20T13:18:36.418Z,3.53
2017-02-20T13:19:47.149Z,3.61
2017-02-20T13:20:57.494Z,3.68
2017-02-20T13:22:08.251Z,3.64
2017-02-20T13:23:18.992Z,3.46
2017-02-20T13:24:29.712Z,3.31
2017-02-20T13:25:40.442Z,3.36
2017-02-20T13:26:50.745Z,3.3
2017-02-20T13:28:01.467Z,3.46
2017-02-20T13:29:12.180Z,3.58
2017-02-20T13:30:22.900Z,3.68
2017-02-20T13:31:33.607Z,3.73
2017-02-20T13:32:43.927Z,3.78
2017-02-20T13:33:54.248Z,3.82
2017-02-20T13:35:04.956Z,3.92
2017-02-20T13:36:15.657Z,3.95
2017-02-20T13:37:26.368Z,4.07
2017-02-20T13:38:37.072Z,4.02
2017-02-20T13:39:47.413Z,3.86
2017-02-20T13:40:58.115Z,3.71
2017-02-20T13:42:08.834Z,3.73
2017-02-20T13:43:19.558Z,3.74
2017-02-20T13:44:29.474Z,3.73
2017-02-20T13:45:40.200Z,3.67
2017-02-20T13:46:50.934Z,3.56
2017-02-20T13:48:01.634Z,3.78
2017-02-20T13:49:12.340Z,3.74
2017-02-20T13:50:23.041Z,3.66
2017-02-20T13:51:33.421Z,3.59
2017-02-20T13:52:43.728Z,3.58
2017-02-20T13:53:53.644Z,3.7
2017-02-20T13:55:03.957Z,3.74
2017-02-20T13:56:13.859Z,3.74
2017-02-20T13:57:24.189Z,3.77
2017-02-20T13:58:34.896Z,3.74
2017-02-20T13:59:44.438Z,3.67
2017-02-20T14:00:55.153Z,3.77
2017-02-20T14:02:05.857Z,3.78
2017-02-20T14:03:16.601Z,3.94
2017-02-20T14:04:27.318Z,3.92
2017-02-20T14:05:38.034Z,3.94
2017-02-20T14:06:48.347Z,4.1
2017-02-20T14:07:59.043Z,4.25
2017-02-20T14:09:09.749Z,4.14
2017-02-20T14:10:20.064Z,4.14
2017-02-20T14:11:30.783Z,4.25
2017-02-20T14:12:41.495Z,4.45
2017-02-20T14:13:51.829Z,4.43
2017-02-20T14:15:02.541Z,4.43
2017-02-20T14:16:13.273Z,4.45
2017-02-20T14:17:23.992Z,4.5
2017-02-20T14:18:33.899Z,4.49
2017-02-20T14:19:44.609Z,4.49
2017-02-20T14:20:55.324Z,4.63
2017-02-20T14:22:05.637Z,4.66
2017-02-20T14:23:16.356Z,4.67
2017-02-20T14:24:27.063Z,4.63
2017-02-20T14:25:37.774Z,4.78
2017-02-20T14:26:48.485Z,4.86
2017-02-20T14:27:58.801Z,4.9
2017-02-20T14:29:09.509Z,4.98
2017-02-20T14:30:20.240Z,4.98
2017-02-20T14:31:30.953Z,5.1
2017-02-20T14:32:41.268Z,5.25
2017-02-20T14:33:51.974Z,5.26
2017-02-20T14:35:02.696Z,5.23
2017-02-20T14:36:13.007Z,5.28
2017-02-20T14:37:23.707Z,5.28
2017-02-20T14:38:34.421Z,5
2017-02-20T14:39:45.128Z,4.95
2017-02-20T14:40:55.843Z,5.02
2017-02-20T14:42:06.544Z,5.02
2017-02-20T14:43:16.852Z,4.89
2017-02-20T14:44:27.581Z,4.75
2017-02-20T14:45:38.295Z,4.66
2017-02-20T14:46:49.009Z,4.63
2017-02-20T14:47:59.713Z,4.5
2017-02-20T14:49:10.029Z,4.46
2017-02-20T14:50:20.745Z,4.53
2017-02-20T14:51:31.467Z,4.46
2017-02-20T14:52:42.204Z,4.32
2017-02-20T14:53:52.909Z,4.28
2017-02-20T14:55:03.227Z,4.12
2017-02-20T14:56:13.148Z,4.14
2017-02-20T14:57:23.848Z,4.13
2017-02-20T14:58:34.608Z,4.1
2017-02-20T14:59:45.317Z,4.04
2017-02-20T15:00:55.644Z,4.14
2017-02-20T15:02:06.460Z,4.04
2017-02-20T15:03:16.785Z,4.09
2017-02-20T15:04:27.117Z,4.02
2017-02-20T15:05:37.836Z,4
2017-02-20T15:06:48.553Z,3.92
2017-02-20T15:07:59.275Z,3.85
2017-02-20T15:09:10.006Z,3.81
2017-02-20T15:10:20.707Z,3.81
2017-02-20T15:11:31.437Z,3.77
2017-02-20T15:12:42.146Z,3.78
2017-02-20T15:13:52.855Z,3.77
2017-02-20T15:15:02.767Z,3.73
2017-02-20T15:16:13.081Z,3.66
2017-02-20T15:17:23.798Z,3.7
2017-02-20T15:18:34.521Z,3.66
2017-02-20T15:19:45.229Z,3.71
2017-02-20T15:20:55.935Z,3.7
2017-02-20T15:22:06.651Z,3.67
2017-02-20T15:23:16.981Z,3.67
2017-02-20T15:24:27.683Z,3.7
2017-02-20T15:25:38.411Z,3.68
2017-02-20T15:26:49.117Z,3.46
2017-02-20T15:27:59.831Z,3.52
2017-02-20T15:29:10.538Z,3.53
2017-02-20T15:30:20.843Z,3.48
2017-02-20T15:31:31.539Z,3.48
2017-02-20T15:32:42.253Z,3.43
2017-02-20T15:33:52.978Z,3.33
2017-02-20T15:35:03.305Z,3.37
2017-02-20T15:36:13.221Z,3.24
2017-02-20T15:37:23.939Z,3.36
2017-02-20T15:38:34.648Z,3.3
2017-02-20T15:39:44.973Z,3.22
2017-02-20T15:40:55.692Z,3.16
2017-02-20T15:42:06.029Z,3.18
2017-02-20T15:43:16.349Z,3.13